Flight Track Log - Related Links

Times and Time Zones

All times are in EDT time to prevent confusion due to time zone crossing. See the N2368S flight status page for this flight to view local times or setup timezone preferences in your user account.

Time Position Orientation Groundspeed Altitude Reporting Facility
EDT Latitude Longitude Course Direction KTS MPH feet Rate Location/Type
Mon 10:46:29 AM 34.8869 -81.0483 168° South 95 109 2,700  Level Atlanta Center
Mon 10:47:36 AM 34.8597 -81.0417 169° South 89 102 3,400 614 Climbing Atlanta Center
Mon 10:48:36 AM 34.8344 -81.0400 177° South 85 98 4,000 614 Climbing Atlanta Center
Mon 10:49:43 AM 34.8072 -81.0361 173° South 91 105 4,700 537 Climbing Atlanta Center
Mon 10:50:50 AM 34.7781 -81.0294 169° South 94 108 5,200 466 Climbing Atlanta Center
Mon 10:51:00 AM 34.8225 -81.0265 168° South  Level FlightAware Approximate
Mon 10:51:26 AM 34.7633 -81.0275 174° South 94 108 5,500  Level Atlanta Center
Mon 10:53:00 AM 34.7128 -81.0105 172° South  Level FlightAware Approximate
Mon 11:00:00 AM 34.4881 -80.9720 171° South  Level FlightAware Approximate
Mon 11:01:00 AM 34.4561 -80.9661 171° South  Level FlightAware Approximate
Mon 11:02:00 AM 34.4240 -80.9603 171° South  Level FlightAware Approximate
Mon 11:03:00 AM 34.3919 -80.9544 171° South  Level FlightAware Approximate
Mon 11:04:00 AM 34.3599 -80.9485 171° South  Level FlightAware Approximate
Mon 11:05:00 AM 34.3278 -80.9427 171° South  Level FlightAware Approximate
Mon 11:06:00 AM 34.2958 -80.9368 171° South  Level FlightAware Approximate
Mon 11:07:00 AM 34.2637 -80.9310 171° South  Level FlightAware Approximate
Mon 11:08:00 AM 34.2316 -80.9252 171° South  Level FlightAware Approximate
Mon 11:09:00 AM 34.1996 -80.9193 171° South  Level FlightAware Approximate
Mon 11:10:00 AM 34.1675 -80.9135 171° South  Level FlightAware Approximate
Mon 11:11:00 AM 34.1355 -80.9077 171° South  Level FlightAware Approximate
Mon 11:12:00 AM 34.1034 -80.9018 171° South  Level FlightAware Approximate
Mon 11:13:00 AM 34.0713 -80.8960 171° South  Level FlightAware Approximate
Mon 11:14:00 AM 34.0393 -80.8902 171° South  Level FlightAware Approximate
Mon 11:15:00 AM 34.0072 -80.8844 171° South  Level FlightAware Approximate
Mon 11:16:00 AM 33.9752 -80.8786 171° South  Level FlightAware Approximate
Mon 11:17:00 AM 33.9431 -80.8728 171° South  Level FlightAware Approximate
Mon 11:18:00 AM 33.9110 -80.8670 171° South  Level FlightAware Approximate
Mon 11:19:00 AM 33.8790 -80.8612 171° South  Level FlightAware Approximate
Mon 11:20:00 AM 33.8469 -80.8555 171° South  Level FlightAware Approximate
Mon 11:21:00 AM 33.8148 -80.8500 180° South  Level FlightAware Approximate
Mon 11:22:00 AM 33.7824 -80.8500 180° South  Level FlightAware Approximate
Mon 11:23:00 AM 33.7500 -80.8500 180° South  Level FlightAware Approximate
Mon 11:24:00 AM 33.7178 -80.8471 171° South  Level FlightAware Approximate
Mon 11:25:00 AM 33.6857 -80.8410 171° South  Level FlightAware Approximate
Mon 11:26:00 AM 33.6537 -80.8350 171° South  Level FlightAware Approximate
Mon 11:27:00 AM 33.6217 -80.8290 171° South  Level FlightAware Approximate
Mon 11:28:00 AM 33.5896 -80.8230 171° South  Level FlightAware Approximate
Mon 11:29:00 AM 33.5576 -80.8170 171° South  Level FlightAware Approximate
Mon 11:30:00 AM 33.5256 -80.8110 171° South  Level FlightAware Approximate
Mon 11:31:00 AM 33.4935 -80.8050 171° South  Level FlightAware Approximate
Mon 11:32:00 AM 33.4615 -80.7990 171° South  Level FlightAware Approximate
Mon 11:33:00 AM 33.4295 -80.7930 171° South  Level FlightAware Approximate
Mon 11:34:00 AM 33.3974 -80.7870 171° South  Level FlightAware Approximate
Mon 11:35:00 AM 33.3654 -80.7810 171° South  Level FlightAware Approximate
Mon 11:36:00 AM 33.3334 -80.7750 171° South  Level FlightAware Approximate
Mon 11:37:00 AM 33.3014 -80.7690 171° South  Level FlightAware Approximate
Mon 11:38:00 AM 33.2693 -80.7630 171° South  Level FlightAware Approximate
Mon 11:39:00 AM 33.2373 -80.7570 171° South  Level FlightAware Approximate
Mon 11:40:00 AM 33.2053 -80.7510 171° South  Level FlightAware Approximate
Mon 11:41:00 AM 33.1731 -80.7458 172° South  Level FlightAware Approximate
Mon 11:42:00 AM 33.1410 -80.7407 172° South  Level FlightAware Approximate
Mon 11:43:00 AM 33.1089 -80.7356 172° South  Level FlightAware Approximate
Mon 11:44:00 AM 33.0767 -80.7305 172° South  Level FlightAware Approximate
Mon 11:45:00 AM 33.0446 -80.7254 172° South  Level FlightAware Approximate
Mon 11:46:00 AM 33.0125 -80.7203 172° South  Level FlightAware Approximate
Mon 11:47:00 AM 32.9803 -80.7153 172° South  Level FlightAware Approximate
Mon 11:48:00 AM 32.9482 -80.7102 172° South  Level FlightAware Approximate
Mon 11:49:00 AM 32.9160 -80.7051 172° South  Level FlightAware Approximate
Mon 11:50:00 AM 32.8839 -80.7001 172° South  Level FlightAware Approximate
Mon 11:51:00 AM 32.8518 -80.6947 172° South  Level FlightAware Approximate
Mon 11:52:00 AM 32.8197 -80.6894 172° South  Level FlightAware Approximate
Mon 11:53:00 AM 32.7876 -80.6840 172° South  Level FlightAware Approximate
Mon 11:54:00 AM 32.7555 -80.6787 172° South  Level FlightAware Approximate
Mon 11:55:00 AM 32.7234 -80.6733 172° South  Level FlightAware Approximate
Mon 11:56:00 AM 32.6912 -80.6680 172° South  Level FlightAware Approximate
Mon 11:57:00 AM 32.6590 -80.6642 175° South  Level FlightAware Approximate
Mon 11:58:00 AM 32.6267 -80.6610 175° South  Level FlightAware Approximate
Mon 11:59:00 AM 32.5944 -80.6578 175° South  Level FlightAware Approximate
Mon 12:00:00 PM 32.5621 -80.6545 175° South  Level FlightAware Approximate
Mon 12:01:00 PM 32.5298 -80.6513 175° South  Level FlightAware Approximate
Mon 12:02:00 PM 32.4989 -80.6411 157° South  Level FlightAware Approximate
Mon 12:03:00 PM 32.4678 -80.6333 180° South  Level FlightAware Approximate
Mon 12:04:00 PM 32.4354 -80.6333 180° South  Level FlightAware Approximate
Mon 12:05:00 PM 32.4122 -80.6344 180° South  Level Estimated
Mon 12:06:00 PM 32.4122 -80.6344 180° South  Level Estimated
Mon 12:07:00 PM 32.4122 -80.6344 176° South  Level Estimated
Mon 12:08:00 PM 32.4122 -80.6344 176° South  Level Estimated
Mon 12:09:00 PM 32.4122 -80.6344 180° South  Level Estimated
Mon 12:10:00 PM 32.4122 -80.6344 176° South  Level Estimated
Mon 12:11:00 PM 32.4122 -80.6344 176° South  Level Estimated
Mon 12:12:00 PM 32.4122 -80.6344 180° South  Level Estimated
Mon 12:13:00 PM 32.4122 -80.6344 176° South  Level Estimated
Mon 12:14:00 PM 32.4122 -80.6344 176° South  Level Estimated
Mon 12:15:00 PM 32.4122 -80.6344 180° South  Level Estimated
Mon 12:16:00 PM 32.4122 -80.6344 176° South  Level Estimated
Mon 12:17:00 PM 32.4122 -80.6344 176° South  Level Estimated
Mon 12:18:00 PM 32.4122 -80.6344 180° South  Level Estimated
Mon 12:19:00 PM 32.4122 -80.6344 176° South  Level Estimated
Mon 12:20:00 PM 32.4122 -80.6344 176° South  Level Estimated
Mon 12:21:00 PM 32.4122 -80.6344 180° South  Level Estimated
Mon 12:22:00 PM 32.4122 -80.6344 176° South  Level Estimated

Login

Don't have an account? Register now (free) for customized features, flight alerts, and more!